Time;durP1;ratioP1;P1;durP2;ratioP2;P2;SDS_P1;SDS_P2;PMS_P1;PMS_P2;Temp;Humidity;BMP_temperature;BMP_pressure;BME280_temperature;BME280_humidity;BME280_pressure;Samples;Min_cycle;Max_cycle;Signal;HPM_P1;HPM_P2
2022/06/04 00:00:01;;;;;;;;;12.75;12.75;;;;;;;;5093884;27;62245;-78
2022/06/04 00:02:26;;;;;;;;;16.25;13.25;;;;;;;;5084385;27;61762;-78
2022/06/04 00:04:52;;;;;;;;;17.00;13.25;;;;;;;;5084469;27;62055;-78
2022/06/04 00:07:17;;;;;;;;;14.75;12.00;;;;;;;;5102468;27;62075;-78
2022/06/04 00:15:29;;;;;;;;;13.50;10.25;;;;;;;;5101826;27;62045;-78
2022/06/04 00:15:30;;;;;;;;;15.50;13.00;;;;;;;;5102868;27;61938;-78
2022/06/04 00:17:56;;;;;;;;;13.75;10.00;;;;;;;;5102760;27;61688;-78
2022/06/04 00:20:21;;;;;;;;;12.00;11.00;;;;;;;;5083703;27;63620;-78
2022/06/04 00:22:47;;;;;;;;;14.00;14.00;;;;;;;;5102500;27;62118;-77
2022/06/04 00:25:14;;;;;;;;;15.75;14.50;;;;;;;;5102423;27;61872;-77
2022/06/04 00:27:39;;;;;;;;;14.25;11.25;;;;;;;;5102707;27;61977;-78
2022/06/04 00:30:05;;;;;;;;;18.75;14.75;;;;;;;;5102127;27;62017;-78
2022/06/04 00:32:31;;;;;;;;;15.50;14.25;;;;;;;;5102674;27;61927;-78
2022/06/04 00:34:56;;;;;;;;;15.75;12.75;;;;;;;;5101933;27;61879;-78
2022/06/04 00:37:21;;;;;;;;;12.00;12.00;;;;;;;;5078470;27;62360;-78
2022/06/04 00:39:46;;;;;;;;;19.25;13.75;;;;;;;;5101545;27;62828;-77
2022/06/04 00:42:13;;;;;;;;;13.25;12.00;;;;;;;;5083865;27;61968;-78
2022/06/04 00:45:17;;;;;;;;;16.00;13.75;;;;;;;;5102322;27;62036;-78
2022/06/04 00:47:42;;;;;;;;;14.50;12.25;;;;;;;;5022093;28;61983;-78
2022/06/04 00:50:09;;;;;;;;;16.50;13.00;;;;;;;;5022069;28;61939;-78
2022/06/04 00:52:35;;;;;;;;;19.50;16.00;;;;;;;;5005929;28;61704;-78
2022/06/04 00:55:03;;;;;;;;;12.75;12.75;;;;;;;;5013700;28;62009;-78
2022/06/04 00:57:28;;;;;;;;;21.50;13.50;;;;;;;;5020965;28;62006;-78
2022/06/04 01:00:04;;;;;;;;;21.00;17.25;;;;;;;;5041220;28;62005;-78
2022/06/04 01:02:32;;;;;;;;;19.00;14.00;;;;;;;;5042284;28;62071;-78
2022/06/04 01:05:16;;;;;;;;;19.25;13.00;;;;;;;;5025368;28;62096;-78
2022/06/04 01:07:47;;;;;;;;;17.75;14.25;;;;;;;;5041919;28;62290;-78
2022/06/04 01:10:31;;;;;;;;;14.00;14.00;;;;;;;;5041147;28;61807;-78
2022/06/04 01:13:01;;;;;;;;;15.75;15.00;;;;;;;;5025181;28;62085;-78
2022/06/04 01:15:38;;;;;;;;;13.75;13.50;;;;;;;;5042440;28;61964;-78
2022/06/04 01:18:22;;;;;;;;;19.25;14.25;;;;;;;;5059402;27;61900;-78
2022/06/04 01:20:59;;;;;;;;;15.75;13.75;;;;;;;;5104700;27;63205;-78
2022/06/04 01:23:51;;;;;;;;;17.75;16.50;;;;;;;;5105165;27;61764;-77
2022/06/04 01:26:35;;;;;;;;;17.00;13.25;;;;;;;;5073267;27;62219;-78
2022/06/04 01:29:04;;;;;;;;;12.25;11.00;;;;;;;;5105346;27;61823;-78
2022/06/04 01:31:49;;;;;;;;;14.25;13.25;;;;;;;;5104875;27;62157;-78
2022/06/04 01:34:18;;;;;;;;;11.75;10.75;;;;;;;;5086608;27;61770;-78
2022/06/04 01:36:56;;;;;;;;;14.00;13.75;;;;;;;;5104989;27;61875;-78
2022/06/04 01:39:23;;;;;;;;;16.00;13.75;;;;;;;;5086496;27;62198;-78
2022/06/04 01:41:54;;;;;;;;;15.50;13.00;;;;;;;;5104101;27;62013;-78
2022/06/04 01:44:22;;;;;;;;;14.25;12.00;;;;;;;;5104960;27;61791;-78
2022/06/04 01:46:51;;;;;;;;;13.50;13.00;;;;;;;;5105037;27;61862;-78
2022/06/04 01:49:31;;;;;;;;;13.00;13.00;;;;;;;;5105129;27;61780;-78
2022/06/04 01:52:00;;;;;;;;;18.00;13.75;;;;;;;;5104064;27;62090;-78
2022/06/04 01:54:32;;;;;;;;;18.75;14.50;;;;;;;;5104535;27;61880;-78
2022/06/04 01:57:05;;;;;;;;;16.00;12.50;;;;;;;;5104251;27;61954;-77
2022/06/04 01:59:42;;;;;;;;;11.75;11.75;;;;;;;;5086370;27;62056;-78
2022/06/04 02:02:12;;;;;;;;;15.75;13.50;;;;;;;;5085744;27;63911;-78
2022/06/04 02:04:40;;;;;;;;;18.00;12.75;;;;;;;;5086118;27;61751;-78
2022/06/04 02:07:31;;;;;;;;;15.25;15.25;;;;;;;;5085407;27;62103;-77
2022/06/04 02:10:01;;;;;;;;;12.50;10.25;;;;;;;;5104612;27;61940;-78
2022/06/04 02:12:26;;;;;;;;;15.50;12.00;;;;;;;;5103825;27;62301;-78
2022/06/04 02:14:52;;;;;;;;;14.25;12.50;;;;;;;;5104462;27;61978;-78
2022/06/04 02:17:20;;;;;;;;;15.25;11.75;;;;;;;;5104480;27;61819;-78
2022/06/04 02:19:45;;;;;;;;;13.25;11.50;;;;;;;;5104606;27;61638;-78
2022/06/04 02:22:11;;;;;;;;;16.50;15.00;;;;;;;;5103553;27;61795;-78
2022/06/04 02:24:37;;;;;;;;;14.50;11.75;;;;;;;;5104500;27;61769;-78
2022/06/04 02:27:04;;;;;;;;;14.00;12.00;;;;;;;;5103949;27;61872;-78
2022/06/04 02:29:29;;;;;;;;;18.50;13.00;;;;;;;;5104721;27;61887;-78
2022/06/04 02:31:55;;;;;;;;;17.00;9.75;;;;;;;;5103549;27;62854;-78
2022/06/04 02:34:20;;;;;;;;;14.25;11.75;;;;;;;;5104187;27;61778;-78
2022/06/04 02:36:51;;;;;;;;;13.75;11.50;;;;;;;;5103891;27;61744;-78
2022/06/04 02:39:24;;;;;;;;;14.50;12.50;;;;;;;;5085572;27;61864;-78
2022/06/04 02:42:00;;;;;;;;;19.50;12.75;;;;;;;;5084768;27;65019;-78
2022/06/04 02:44:29;;;;;;;;;15.25;13.50;;;;;;;;5103969;27;61607;-78
2022/06/04 02:47:03;;;;;;;;;11.75;11.25;;;;;;;;5104029;27;61985;-78
2022/06/04 02:49:36;;;;;;;;;12.75;10.75;;;;;;;;5085636;27;62000;-78
2022/06/04 02:52:02;;;;;;;;;10.75;10.00;;;;;;;;5084575;27;64759;-78
2022/06/04 02:54:35;;;;;;;;;18.00;14.00;;;;;;;;5103815;27;61848;-78
2022/06/04 02:57:02;;;;;;;;;18.25;15.00;;;;;;;;5084824;27;61750;-78
2022/06/04 02:59:28;;;;;;;;;16.75;13.75;;;;;;;;5085182;27;61771;-77
2022/06/04 03:01:57;;;;;;;;;19.50;14.00;;;;;;;;5084827;27;65312;-78
2022/06/04 03:04:22;;;;;;;;;11.75;11.25;;;;;;;;5084964;27;61986;-78
2022/06/04 03:06:48;;;;;;;;;16.25;15.25;;;;;;;;5085127;27;61814;-78
2022/06/04 03:09:15;;;;;;;;;15.00;12.75;;;;;;;;5102659;27;61897;-78
2022/06/04 03:11:43;;;;;;;;;15.50;14.75;;;;;;;;5102758;27;61827;-78
2022/06/04 03:14:08;;;;;;;;;17.25;15.50;;;;;;;;5103460;27;61801;-78
2022/06/04 03:16:36;;;;;;;;;13.50;12.00;;;;;;;;5103290;27;61853;-78
2022/06/04 03:19:01;;;;;;;;;16.75;13.00;;;;;;;;5103530;27;61908;-78
2022/06/04 03:21:28;;;;;;;;;8.75;8.75;;;;;;;;5102730;27;62600;-77
2022/06/04 03:23:53;;;;;;;;;16.00;12.00;;;;;;;;5103577;27;62198;-78
2022/06/04 03:26:18;;;;;;;;;14.00;11.75;;;;;;;;5103114;27;61704;-78
2022/06/04 03:28:43;;;;;;;;;14.50;14.50;;;;;;;;5103618;27;62015;-78
2022/06/04 03:31:09;;;;;;;;;16.75;15.75;;;;;;;;5102580;27;62020;-78
2022/06/04 03:33:34;;;;;;;;;15.25;14.00;;;;;;;;5085107;27;61905;-78
2022/06/04 03:35:59;;;;;;;;;14.25;14.00;;;;;;;;5103084;27;61987;-78
2022/06/04 03:38:24;;;;;;;;;15.25;14.25;;;;;;;;5084497;27;61891;-78
2022/06/04 03:40:50;;;;;;;;;12.75;11.00;;;;;;;;5102591;27;62092;-78
2022/06/04 03:43:15;;;;;;;;;15.50;12.00;;;;;;;;5084571;27;62391;-78
2022/06/04 03:45:40;;;;;;;;;18.50;16.75;;;;;;;;5103242;27;62141;-78
2022/06/04 03:48:06;;;;;;;;;16.50;12.50;;;;;;;;5103153;27;61831;-77
2022/06/04 03:50:32;;;;;;;;;16.25;14.25;;;;;;;;5083899;27;64903;-78
2022/06/04 03:52:57;;;;;;;;;14.00;12.00;;;;;;;;5103067;27;62123;-78
2022/06/04 03:55:24;;;;;;;;;14.50;10.50;;;;;;;;5102574;27;62440;-78
2022/06/04 03:57:50;;;;;;;;;16.75;15.00;;;;;;;;5084795;27;61876;-78
2022/06/04 04:00:19;;;;;;;;;13.00;11.00;;;;;;;;5083530;27;63551;-78
2022/06/04 04:02:46;;;;;;;;;13.25;10.50;;;;;;;;5102724;27;61720;-77
2022/06/04 04:05:12;;;;;;;;;16.75;13.00;;;;;;;;5084213;27;61999;-78
2022/06/04 04:07:38;;;;;;;;;18.00;14.00;;;;;;;;5102452;27;61779;-78
2022/06/04 04:10:05;;;;;;;;;13.75;12.50;;;;;;;;5102194;27;61722;-78
2022/06/04 04:12:30;;;;;;;;;16.00;13.00;;;;;;;;5102227;27;61847;-78
2022/06/04 04:14:56;;;;;;;;;15.00;12.50;;;;;;;;5102651;27;61844;-78
2022/06/04 04:17:22;;;;;;;;;16.00;12.00;;;;;;;;5102356;27;61855;-77
2022/06/04 04:19:48;;;;;;;;;13.00;12.00;;;;;;;;5083584;27;63828;-78
2022/06/04 04:22:13;;;;;;;;;16.00;14.00;;;;;;;;5104959;27;61781;-78
2022/06/04 04:24:38;;;;;;;;;14.75;12.75;;;;;;;;5106461;27;61761;-78
2022/06/04 04:27:04;;;;;;;;;13.00;10.25;;;;;;;;5106192;27;61727;-78
2022/06/04 04:29:29;;;;;;;;;23.00;19.25;;;;;;;;5105450;27;62765;-78
2022/06/04 04:31:54;;;;;;;;;19.75;12.00;;;;;;;;5086448;27;62374;-77
2022/06/04 04:34:19;;;;;;;;;15.75;12.00;;;;;;;;5087567;27;62384;-77
2022/06/04 04:36:45;;;;;;;;;17.25;12.00;;;;;;;;5105504;27;61867;-77
2022/06/04 04:39:10;;;;;;;;;11.25;11.25;;;;;;;;5104952;27;62131;-77
2022/06/04 04:41:36;;;;;;;;;9.00;9.00;;;;;;;;5105828;27;61780;-77
2022/06/04 04:44:02;;;;;;;;;16.75;13.25;;;;;;;;5086659;27;61884;-77
2022/06/04 04:46:27;;;;;;;;;16.50;11.50;;;;;;;;5105057;27;61766;-77
2022/06/04 04:48:52;;;;;;;;;15.25;13.25;;;;;;;;5104975;27;62031;-77
2022/06/04 04:51:19;;;;;;;;;9.25;9.25;;;;;;;;5104952;27;62102;-77
2022/06/04 04:53:45;;;;;;;;;15.25;12.25;;;;;;;;5104747;27;62056;-78
2022/06/04 04:56:11;;;;;;;;;14.00;11.50;;;;;;;;5104794;27;62057;-78
2022/06/04 04:58:37;;;;;;;;;13.50;13.50;;;;;;;;5083013;27;63628;-78
2022/06/04 05:01:02;;;;;;;;;17.25;12.00;;;;;;;;5104762;27;61875;-78
2022/06/04 05:03:27;;;;;;;;;13.50;12.00;;;;;;;;5105233;27;61895;-78
2022/06/04 05:05:56;;;;;;;;;14.00;13.00;;;;;;;;5105249;27;62197;-78
2022/06/04 05:08:22;;;;;;;;;12.75;12.25;;;;;;;;5085167;27;64724;-78
2022/06/04 05:10:47;;;;;;;;;10.50;10.50;;;;;;;;5105480;27;62174;-78
2022/06/04 05:13:12;;;;;;;;;14.00;12.25;;;;;;;;5105216;27;61865;-78
2022/06/04 05:15:37;;;;;;;;;12.25;11.25;;;;;;;;5104895;27;61790;-78
2022/06/04 05:18:03;;;;;;;;;11.75;11.25;;;;;;;;5104859;27;61839;-78
2022/06/04 05:20:28;;;;;;;;;14.25;12.00;;;;;;;;5105279;27;61949;-77
2022/06/04 05:22:55;;;;;;;;;14.75;12.25;;;;;;;;5105316;27;61907;-78
2022/06/04 05:25:25;;;;;;;;;12.00;12.00;;;;;;;;5086770;27;62130;-78
2022/06/04 05:27:51;;;;;;;;;16.25;12.50;;;;;;;;5104785;27;62757;-78
2022/06/04 05:30:17;;;;;;;;;17.50;15.00;;;;;;;;5105003;27;61911;-78
2022/06/04 05:32:42;;;;;;;;;13.50;12.25;;;;;;;;5086023;27;62143;-78
2022/06/04 05:35:08;;;;;;;;;13.00;9.75;;;;;;;;5105598;27;61904;-79
2022/06/04 05:37:33;;;;;;;;;15.75;11.50;;;;;;;;5104042;27;62482;-78
2022/06/04 05:39:59;;;;;;;;;14.50;12.50;;;;;;;;5105328;27;61898;-78
2022/06/04 05:42:24;;;;;;;;;15.00;13.00;;;;;;;;5105090;27;61783;-78
2022/06/04 05:44:51;;;;;;;;;15.50;12.00;;;;;;;;5086588;27;61793;-78
2022/06/04 05:47:17;;;;;;;;;11.75;11.00;;;;;;;;5104337;27;63148;-78
2022/06/04 05:49:42;;;;;;;;;12.25;11.75;;;;;;;;5086199;27;61984;-79
2022/06/04 05:52:08;;;;;;;;;14.00;14.00;;;;;;;;5105171;27;61967;-78
2022/06/04 05:54:33;;;;;;;;;15.50;12.50;;;;;;;;5104886;27;62136;-79
2022/06/04 05:56:58;;;;;;;;;11.75;11.00;;;;;;;;5104119;27;63006;-78
2022/06/04 05:59:24;;;;;;;;;13.50;9.25;;;;;;;;5104308;27;62066;-79
2022/06/04 06:01:49;;;;;;;;;11.50;11.25;;;;;;;;5104601;27;61722;-78
2022/06/04 06:04:16;;;;;;;;;16.25;11.75;;;;;;;;5104902;27;61793;-78
2022/06/04 06:06:44;;;;;;;;;11.00;11.00;;;;;;;;5085541;27;63604;-78
2022/06/04 06:09:10;;;;;;;;;14.50;11.50;;;;;;;;5104447;27;61888;-79
2022/06/04 06:11:36;;;;;;;;;12.75;12.75;;;;;;;;5085628;27;61889;-78
2022/06/04 06:14:01;;;;;;;;;15.50;14.50;;;;;;;;5104481;27;62013;-78
2022/06/04 06:16:28;;;;;;;;;15.75;11.75;;;;;;;;5103949;27;62704;-78
2022/06/04 06:18:57;;;;;;;;;14.00;13.50;;;;;;;;5104281;27;61826;-78
2022/06/04 06:21:24;;;;;;;;;10.75;10.75;;;;;;;;5086021;27;61836;-78
2022/06/04 06:23:49;;;;;;;;;16.25;14.00;;;;;;;;5085992;27;61680;-78
2022/06/04 06:26:15;;;;;;;;;16.75;12.00;;;;;;;;5103623;27;62939;-78
2022/06/04 06:28:41;;;;;;;;;11.50;11.50;;;;;;;;5104014;27;61767;-78
2022/06/04 06:31:07;;;;;;;;;12.25;10.50;;;;;;;;5104484;27;61717;-78
2022/06/04 06:33:32;;;;;;;;;14.50;11.75;;;;;;;;5085959;27;61822;-77
2022/06/04 06:35:58;;;;;;;;;17.00;13.25;;;;;;;;5084852;27;63770;-78
2022/06/04 06:38:23;;;;;;;;;15.75;11.50;;;;;;;;5103861;27;61947;-77
2022/06/04 06:40:49;;;;;;;;;11.75;9.75;;;;;;;;5104010;27;62037;-76
2022/06/04 06:43:14;;;;;;;;;14.50;11.25;;;;;;;;5103718;27;61757;-76
2022/06/04 06:45:41;;;;;;;;;10.50;9.25;;;;;;;;5103010;27;61889;-77
2022/06/04 06:48:07;;;;;;;;;15.50;12.00;;;;;;;;5085468;27;61985;-77
2022/06/04 06:50:32;;;;;;;;;14.75;11.50;;;;;;;;5103951;27;61861;-77
2022/06/04 06:52:57;;;;;;;;;12.00;9.50;;;;;;;;5104103;27;62142;-77
2022/06/04 06:55:22;;;;;;;;;14.50;11.25;;;;;;;;5103376;27;62429;-77
2022/06/04 06:57:48;;;;;;;;;12.25;11.50;;;;;;;;5103124;27;61882;-77
2022/06/04 07:00:13;;;;;;;;;13.00;9.50;;;;;;;;5103668;27;61754;-78
2022/06/04 07:02:38;;;;;;;;;12.00;10.75;;;;;;;;5103916;27;62007;-78
2022/06/04 07:05:04;;;;;;;;;12.50;12.25;;;;;;;;5103278;27;61883;-77
2022/06/04 07:07:29;;;;;;;;;17.25;15.00;;;;;;;;5103565;27;61836;-77
2022/06/04 07:09:54;;;;;;;;;12.00;11.25;;;;;;;;5103435;27;62037;-77
2022/06/04 07:12:20;;;;;;;;;11.75;11.75;;;;;;;;5085027;27;62117;-77
2022/06/04 07:14:45;;;;;;;;;14.50;13.75;;;;;;;;5103057;27;62752;-77
2022/06/04 07:17:11;;;;;;;;;13.00;12.75;;;;;;;;5103305;27;61861;-77
2022/06/04 07:19:36;;;;;;;;;12.50;11.50;;;;;;;;5103900;27;61846;-76
2022/06/04 07:22:02;;;;;;;;;15.50;15.00;;;;;;;;5103472;27;61683;-76
2022/06/04 07:24:27;;;;;;;;;13.00;12.25;;;;;;;;5102841;27;63129;-77
2022/06/04 07:26:53;;;;;;;;;13.25;11.75;;;;;;;;5102997;27;61874;-77
2022/06/04 07:29:21;;;;;;;;;14.00;13.00;;;;;;;;5102863;27;61873;-77
2022/06/04 07:31:47;;;;;;;;;10.25;9.25;;;;;;;;5101836;27;62287;-78
2022/06/04 07:34:12;;;;;;;;;19.75;16.75;;;;;;;;5100798;27;61875;-78
2022/06/04 07:36:40;;;;;;;;;12.00;12.00;;;;;;;;5101307;27;61778;-77
2022/06/04 07:39:06;;;;;;;;;14.25;11.00;;;;;;;;5100914;27;61775;-77
2022/06/04 07:41:43;;;;;;;;;16.25;12.50;;;;;;;;5101511;27;61980;-77
2022/06/04 07:44:08;;;;;;;;;16.25;11.75;;;;;;;;5072200;27;64608;-77
2022/06/04 07:46:34;;;;;;;;;17.00;15.25;;;;;;;;5101171;27;62228;-78
2022/06/04 07:49:00;;;;;;;;;15.75;15.50;;;;;;;;5101239;27;61943;-77
2022/06/04 07:51:27;;;;;;;;;18.75;15.25;;;;;;;;5101628;27;62037;-77
2022/06/04 07:53:52;;;;;;;;;15.00;14.25;;;;;;;;5100699;27;63126;-77
2022/06/04 07:56:18;;;;;;;;;14.50;14.00;;;;;;;;5082298;27;62290;-77
2022/06/04 07:58:43;;;;;;;;;24.00;18.25;;;;;;;;5101142;27;61891;-76
2022/06/04 08:01:10;;;;;;;;;20.75;14.00;;;;;;;;5100170;27;62016;-76
2022/06/04 08:03:36;;;;;;;;;17.25;14.75;;;;;;;;5101100;27;62700;-76
2022/06/04 08:06:02;;;;;;;;;20.00;16.75;;;;;;;;5082305;27;62187;-76
2022/06/04 08:08:28;;;;;;;;;14.25;12.50;;;;;;;;5101675;27;61717;-76
2022/06/04 08:10:53;;;;;;;;;20.00;16.00;;;;;;;;5081975;27;61838;-77
2022/06/04 08:13:31;;;;;;;;;16.25;15.25;;;;;;;;5100759;27;63295;-77
2022/06/04 08:15:57;;;;;;;;;20.25;13.25;;;;;;;;5099937;27;61891;-76
2022/06/04 08:18:22;;;;;;;;;20.25;15.75;;;;;;;;5100644;27;62031;-76
2022/06/04 08:20:48;;;;;;;;;13.50;12.50;;;;;;;;5102380;27;61749;-75
2022/06/04 08:23:13;;;;;;;;;18.00;15.25;;;;;;;;5101780;27;62618;-75
2022/06/04 08:25:40;;;;;;;;;17.00;14.00;;;;;;;;5101895;27;61810;-75
2022/06/04 08:28:05;;;;;;;;;23.25;16.00;;;;;;;;5102512;27;61825;-77
2022/06/04 08:30:30;;;;;;;;;13.50;13.00;;;;;;;;5101265;27;61900;-76
2022/06/04 08:32:57;;;;;;;;;22.00;17.25;;;;;;;;5099113;27;62662;-75
2022/06/04 08:35:22;;;;;;;;;15.75;14.75;;;;;;;;5100744;27;61992;-75
2022/06/04 08:37:47;;;;;;;;;18.25;15.75;;;;;;;;5100198;27;61703;-75
2022/06/04 08:40:33;;;;;;;;;21.50;17.00;;;;;;;;5082304;27;62807;-75
2022/06/04 08:42:58;;;;;;;;;21.75;19.50;;;;;;;;5100533;27;61711;-79
2022/06/04 08:45:23;;;;;;;;;23.00;17.75;;;;;;;;5101963;27;61957;-84
2022/06/04 08:47:51;;;;;;;;;25.75;19.00;;;;;;;;5083818;27;62013;-79
2022/06/04 08:50:21;;;;;;;;;20.75;14.25;;;;;;;;5102243;27;61775;-79
2022/06/04 08:52:48;;;;;;;;;23.25;19.50;;;;;;;;5100579;27;62463;-78
2022/06/04 08:58:08;;;;;;;;;20.50;16.00;;;;;;;;5097657;27;61847;-78
2022/06/04 09:00:41;;;;;;;;;19.25;18.00;;;;;;;;5082370;27;61918;-79
2022/06/04 09:03:10;;;;;;;;;20.25;18.25;;;;;;;;5080744;27;63712;-78
2022/06/04 09:05:46;;;;;;;;;20.75;17.50;;;;;;;;5100910;27;61852;-79
2022/06/04 09:08:14;;;;;;;;;19.00;16.00;;;;;;;;5102733;27;61804;-78
2022/06/04 09:10:42;;;;;;;;;18.75;18.50;;;;;;;;5104374;27;61867;-79
2022/06/04 09:13:41;;;;;;;;;14.75;13.50;;;;;;;;5103814;27;61989;-79
2022/06/04 09:16:29;;;;;;;;;22.00;16.75;;;;;;;;5000603;28;61808;-79
2022/06/04 09:19:00;;;;;;;;;12.00;12.00;;;;;;;;4993961;28;62146;-79
2022/06/04 09:21:33;;;;;;;;;15.00;13.00;;;;;;;;5002107;28;61993;-78
2022/06/04 09:23:58;;;;;;;;;18.50;16.00;;;;;;;;5001135;28;61864;-78
2022/06/04 09:26:30;;;;;;;;;17.75;13.50;;;;;;;;5001446;28;62078;-79
2022/06/04 09:28:55;;;;;;;;;17.00;15.75;;;;;;;;5002025;28;61934;-78
2022/06/04 09:31:32;;;;;;;;;15.50;14.00;;;;;;;;5001978;28;61973;-78
2022/06/04 09:34:01;;;;;;;;;19.25;15.50;;;;;;;;4984734;28;63767;-78
2022/06/04 09:36:31;;;;;;;;;16.75;12.00;;;;;;;;5001324;28;61843;-78
2022/06/04 09:38:59;;;;;;;;;15.00;14.75;;;;;;;;4984898;28;61833;-79
2022/06/04 09:41:25;;;;;;;;;14.00;13.00;;;;;;;;5001384;28;61780;-78
2022/06/04 09:44:05;;;;;;;;;15.75;11.50;;;;;;;;5001196;28;62035;-79
2022/06/04 09:46:31;;;;;;;;;13.00;12.00;;;;;;;;5001201;28;61839;-79
2022/06/04 09:48:57;;;;;;;;;17.25;15.75;;;;;;;;5001838;28;61812;-79
2022/06/04 09:51:27;;;;;;;;;14.50;12.75;;;;;;;;5022182;27;61905;-78
2022/06/04 09:54:02;;;;;;;;;12.25;12.25;;;;;;;;5104172;27;62874;-79
2022/06/04 09:56:34;;;;;;;;;11.25;11.00;;;;;;;;5085759;27;62025;-79
2022/06/04 09:59:18;;;;;;;;;18.75;14.25;;;;;;;;5086303;27;61980;-78
2022/06/04 10:01:54;;;;;;;;;15.25;11.50;;;;;;;;5104738;27;61696;-79
2022/06/04 10:04:19;;;;;;;;;13.50;11.75;;;;;;;;5103821;27;62735;-78
2022/06/04 10:06:45;;;;;;;;;15.50;11.75;;;;;;;;5104240;27;61807;-78
2022/06/04 10:12:02;;;;;;;;;13.50;13.50;;;;;;;;5104773;27;61971;-78
2022/06/04 10:14:34;;;;;;;;;9.75;9.75;;;;;;;;5103586;27;61931;-79
2022/06/04 10:17:00;;;;;;;;;10.00;10.00;;;;;;;;5104257;27;61715;-78
2022/06/04 10:19:26;;;;;;;;;6.75;6.50;;;;;;;;5103953;27;61729;-78
2022/06/04 10:22:04;;;;;;;;;12.50;9.00;;;;;;;;5104450;27;62008;-78
2022/06/04 10:24:31;;;;;;;;;12.50;9.00;;;;;;;;5103483;27;62904;-78
2022/06/04 10:27:03;;;;;;;;;9.00;7.50;;;;;;;;5085512;27;61770;-78
2022/06/04 10:29:43;;;;;;;;;7.50;7.00;;;;;;;;5104187;27;61880;-78
2022/06/04 10:32:27;;;;;;;;;4.00;4.00;;;;;;;;5104540;27;61773;-78
2022/06/04 10:35:00;;;;;;;;;8.50;6.25;;;;;;;;5084517;27;65211;-78
2022/06/04 10:37:37;;;;;;;;;3.67;3.67;;;;;;;;5084866;27;62010;-78
2022/06/04 10:40:25;;;;;;;;;7.75;7.75;;;;;;;;5085682;27;61633;-78
2022/06/04 10:42:50;;;;;;;;;9.00;6.00;;;;;;;;5104291;27;61706;-79
2022/06/04 10:45:25;;;;;;;;;8.50;6.00;;;;;;;;5103189;27;61835;-78
2022/06/04 10:48:03;;;;;;;;;5.50;4.75;;;;;;;;5103887;27;61791;-79
2022/06/04 10:50:28;;;;;;;;;6.25;5.75;;;;;;;;5103517;27;61829;-79
2022/06/04 10:52:56;;;;;;;;;7.50;6.00;;;;;;;;5085760;27;62040;-79
2022/06/04 10:55:36;;;;;;;;;11.00;7.00;;;;;;;;5103105;27;61922;-79
2022/06/04 10:58:20;;;;;;;;;8.25;5.50;;;;;;;;5103628;27;61756;-79
2022/06/04 11:00:55;;;;;;;;;5.00;4.67;;;;;;;;5103798;27;61798;-79
2022/06/04 11:03:36;;;;;;;;;9.00;6.33;;;;;;;;5084851;27;61887;-79
2022/06/04 11:06:07;;;;;;;;;7.00;7.00;;;;;;;;5103044;27;62020;-79
2022/06/04 11:08:37;;;;;;;;;5.67;5.67;;;;;;;;5102926;27;61709;-78
2022/06/04 11:11:15;;;;;;;;;7.25;4.25;;;;;;;;5103263;27;61780;-79
2022/06/04 11:13:44;;;;;;;;;6.00;6.00;;;;;;;;5085137;27;61877;-78
2022/06/04 11:16:15;;;;;;;;;8.00;5.67;;;;;;;;5102792;27;62582;-78
2022/06/04 11:18:40;;;;;;;;;7.00;5.00;;;;;;;;5102881;27;61693;-78
2022/06/04 11:21:20;;;;;;;;;6.67;6.67;;;;;;;;5084860;27;62309;-78
2022/06/04 11:23:55;;;;;;;;;7.00;7.00;;;;;;;;5103356;27;61939;-78
2022/06/04 11:26:23;;;;;;;;;6.33;5.00;;;;;;;;5101948;27;61895;-78
2022/06/04 11:28:50;;;;;;;;;4.67;4.67;;;;;;;;5100538;27;61691;-78
2022/06/04 11:31:34;;;;;;;;;7.00;5.00;;;;;;;;5100884;27;61885;-78
2022/06/04 11:34:14;;;;;;;;;6.33;5.67;;;;;;;;5081658;27;62218;-78
2022/06/04 11:36:58;;;;;;;;;8.00;6.67;;;;;;;;5094912;27;61760;-79
2022/06/04 11:39:42;;;;;;;;;6.67;6.00;;;;;;;;5082185;27;62186;-80
2022/06/04 11:42:10;;;;;;;;;6.00;6.00;;;;;;;;5084367;27;61730;-80
2022/06/04 11:44:57;;;;;;;;;4.67;4.67;;;;;;;;5102992;27;61815;-80
2022/06/04 11:47:37;;;;;;;;;7.00;5.00;;;;;;;;5102049;27;62843;-79
2022/06/04 11:50:02;;;;;;;;;6.00;5.00;;;;;;;;5102332;27;61952;-82
2022/06/04 11:52:33;;;;;;;;;8.33;5.67;;;;;;;;5082815;27;61779;-77
2022/06/04 11:54:59;;;;;;;;;6.67;5.67;;;;;;;;5102820;27;62157;-77
2022/06/04 11:57:43;;;;;;;;;8.67;5.67;;;;;;;;5112429;27;61880;-77
2022/06/04 12:00:26;;;;;;;;;6.00;5.00;;;;;;;;5120693;27;61917;-78
2022/06/04 12:03:10;;;;;;;;;6.00;5.00;;;;;;;;5116147;27;61728;-78
2022/06/04 12:05:59;;;;;;;;;5.00;5.00;;;;;;;;5116049;27;61783;-78
2022/06/04 12:08:31;;;;;;;;;6.67;6.67;;;;;;;;5026537;28;62014;-79
2022/06/04 12:10:56;;;;;;;;;7.67;6.33;;;;;;;;5030117;28;61923;-78
2022/06/04 12:13:26;;;;;;;;;8.00;7.00;;;;;;;;5008502;28;61903;-78
2022/06/04 12:16:06;;;;;;;;;6.33;4.67;;;;;;;;5026846;28;61841;-78
2022/06/04 12:18:34;;;;;;;;;8.00;6.67;;;;;;;;5008626;28;62090;-80
2022/06/04 12:24:16;;;;;;;;;5.33;5.00;;;;;;;;5024326;28;62112;-78
2022/06/04 12:26:44;;;;;;;;;6.67;6.67;;;;;;;;4982025;28;62102;-79
2022/06/04 12:29:27;;;;;;;;;3.00;3.00;;;;;;;;4981402;28;64728;-78
2022/06/04 12:31:55;;;;;;;;;6.00;4.67;;;;;;;;5012114;28;62117;-79
2022/06/04 12:34:26;;;;;;;;;6.00;6.00;;;;;;;;5025255;28;62144;-78
2022/06/04 12:36:52;;;;;;;;;7.33;5.33;;;;;;;;5034727;28;62015;-78
2022/06/04 12:39:27;;;;;;;;;7.33;6.67;;;;;;;;5025644;28;61990;-79
2022/06/04 12:41:54;;;;;;;;;7.00;6.00;;;;;;;;5021351;28;61844;-80
2022/06/04 12:44:24;;;;;;;;;4.67;4.67;;;;;;;;5032036;27;61998;-80
2022/06/04 12:46:51;;;;;;;;;4.33;4.33;;;;;;;;5101292;27;61897;-80
2022/06/04 12:49:22;;;;;;;;;5.00;5.00;;;;;;;;5084869;27;63770;-79
2022/06/04 12:51:50;;;;;;;;;5.33;4.33;;;;;;;;5106777;27;61827;-80
2022/06/04 12:54:28;;;;;;;;;6.00;6.00;;;;;;;;5104232;27;61906;-80
2022/06/04 12:56:55;;;;;;;;;8.33;4.33;;;;;;;;5101450;27;61853;-81
2022/06/04 12:59:37;;;;;;;;;5.00;5.00;;;;;;;;5102733;27;61940;-80
2022/06/04 13:02:23;;;;;;;;;5.33;4.00;;;;;;;;5103225;27;61816;-81
2022/06/04 13:04:48;;;;;;;;;6.33;5.00;;;;;;;;5086130;27;61945;-81
2022/06/04 13:07:21;;;;;;;;;7.33;6.33;;;;;;;;5104537;27;61725;-80
2022/06/04 13:09:46;;;;;;;;;7.00;6.00;;;;;;;;5085746;27;63672;-81
2022/06/04 13:12:31;;;;;;;;;4.00;4.00;;;;;;;;5104428;27;61820;-81
2022/06/04 13:15:14;;;;;;;;;6.00;5.67;;;;;;;;5104735;27;61923;-83
2022/06/04 13:17:44;;;;;;;;;6.00;6.00;;;;;;;;5103782;27;61856;-81
2022/06/04 13:20:22;;;;;;;;;6.00;4.67;;;;;;;;5084752;27;63858;-80
2022/06/04 13:22:53;;;;;;;;;5.00;5.00;;;;;;;;5087935;27;63152;-80
2022/06/04 13:25:27;;;;;;;;;5.00;5.00;;;;;;;;5103475;27;61852;-80
2022/06/04 13:27:54;;;;;;;;;6.33;6.00;;;;;;;;5103986;27;61872;-80
2022/06/04 13:30:23;;;;;;;;;4.67;4.67;;;;;;;;5102628;27;62496;-80
2022/06/04 13:32:49;;;;;;;;;8.00;6.00;;;;;;;;5103435;27;62069;-80
2022/06/04 13:35:17;;;;;;;;;2.00;2.00;;;;;;;;5103427;27;62025;-80
2022/06/04 13:37:42;;;;;;;;;6.33;5.33;;;;;;;;5084442;27;62013;-80
2022/06/04 13:40:15;;;;;;;;;5.00;5.00;;;;;;;;5084513;27;64393;-80
2022/06/04 13:42:42;;;;;;;;;6.00;4.67;;;;;;;;5103799;27;61987;-80
2022/06/04 13:45:07;;;;;;;;;5.67;4.67;;;;;;;;5104053;27;61807;-80
2022/06/04 13:47:36;;;;;;;;;3.00;3.00;;;;;;;;5105192;27;61749;-80
2022/06/04 13:50:05;;;;;;;;;4.33;4.00;;;;;;;;5104320;27;61773;-80
2022/06/04 13:52:40;;;;;;;;;5.67;4.00;;;;;;;;5104614;27;61892;-80
2022/06/04 13:55:08;;;;;;;;;3.00;3.00;;;;;;;;5104690;27;62006;-79
2022/06/04 13:57:41;;;;;;;;;2.33;2.33;;;;;;;;5104342;27;62364;-79
2022/06/04 14:00:12;;;;;;;;;1.00;1.00;;;;;;;;5104158;27;61889;-79
2022/06/04 14:02:39;;;;;;;;;2.00;2.00;;;;;;;;5104628;27;61978;-79
2022/06/04 14:07:51;;;;;;;;;1.00;1.00;;;;;;;;5104527;27;61945;-78
2022/06/04 14:10:20;;;;;;;;;2.00;2.00;;;;;;;;5085149;27;63578;-79
2022/06/04 14:13:04;;;;;;;;;1.67;1.67;;;;;;;;5104222;27;62250;-80
2022/06/04 14:15:44;;;;;;;;;2.00;2.00;;;;;;;;5104457;27;62688;-79
2022/06/04 14:18:16;;;;;;;;;5.00;3.00;;;;;;;;5104568;27;61875;-79
2022/06/04 14:20:57;;;;;;;;;3.00;3.00;;;;;;;;5085461;27;64776;-79
2022/06/04 14:23:49;;;;;;;;;3.33;2.67;;;;;;;;5103975;27;61945;-79
2022/06/04 14:26:26;;;;;;;;;3.33;2.00;;;;;;;;5030574;28;61936;-79
2022/06/04 14:29:10;;;;;;;;;4.00;4.00;;;;;;;;5040674;28;62102;-80
2022/06/04 14:31:44;;;;;;;;;4.00;2.00;;;;;;;;5037759;28;61794;-79
2022/06/04 14:34:10;;;;;;;;;2.00;2.00;;;;;;;;5040249;28;62021;-79
2022/06/04 14:36:45;;;;;;;;;3.67;2.67;;;;;;;;5022922;28;62941;-79
2022/06/04 14:39:10;;;;;;;;;2.67;2.00;;;;;;;;5030712;28;61889;-79
2022/06/04 14:41:59;;;;;;;;;5.00;3.67;;;;;;;;5021278;28;64928;-79
2022/06/04 14:44:34;;;;;;;;;5.00;3.33;;;;;;;;5029233;28;62056;-79
2022/06/04 14:47:11;;;;;;;;;2.67;2.33;;;;;;;;5021193;28;61849;-80
2022/06/04 14:49:44;;;;;;;;;8.00;3.67;;;;;;;;5019965;28;62233;-81
2022/06/04 14:52:13;;;;;;;;;1.67;1.67;;;;;;;;5029460;28;62716;-80
2022/06/04 14:54:39;;;;;;;;;0.67;0.67;;;;;;;;5035002;28;61964;-79